Time;durP1;ratioP1;P1;durP2;ratioP2;P2;SDS_P1;SDS_P2;PMS_P1;PMS_P2;Temp;Humidity;BMP_temperature;BMP_pressure;BME280_temperature;BME280_humidity;BME280_pressure;Samples;Min_cycle;Max_cycle;Signal;HPM_P1;HPM_P2
2024/05/05 00:02:08;;;;;;;11.10;10.60;;;;;;;;;;5414209;26;20023;-70
2024/05/05 00:04:33;;;;;;;10.68;10.18;;;;;;;;;;5392693;26;20468;-69
2024/05/05 00:06:59;;;;;;;10.80;10.30;;;;;;;;;;5438696;26;19991;-71
2024/05/05 00:09:24;;;;;;;10.88;10.38;;;;;;;;;;5415174;26;19995;-69
2024/05/05 00:11:49;;;;;;;10.95;10.45;;;;;;;;;;5372034;26;19997;-69
2024/05/05 00:14:15;;;;;;;10.65;10.15;;;;;;;;;;5411747;26;20000;-70
2024/05/05 00:16:40;;;;;;;10.05;9.65;;;;;;;;;;5427160;26;20467;-70
2024/05/05 00:19:06;;;;;;;11.23;10.73;;;;;;;;;;5382733;26;20022;-70
2024/05/05 00:21:31;;;;;;;10.57;10.07;;;;;;;;;;5413195;26;20015;-69
2024/05/05 00:23:56;;;;;;;10.50;10.00;;;;;;;;;;5416914;26;20257;-71
2024/05/05 00:26:22;;;;;;;10.70;10.20;;;;;;;;;;5384320;26;20015;-71
2024/05/05 00:28:47;;;;;;;11.07;10.57;;;;;;;;;;5406748;26;20003;-71
2024/05/05 00:31:13;;;;;;;11.25;10.75;;;;;;;;;;5410346;26;19995;-71
2024/05/05 00:33:38;;;;;;;11.10;10.60;;;;;;;;;;5397343;26;20053;-71
2024/05/05 00:36:05;;;;;;;10.80;10.30;;;;;;;;;;5418319;26;20003;-70
2024/05/05 00:38:30;;;;;;;10.50;10.00;;;;;;;;;;5415095;26;20000;-70
2024/05/05 00:40:56;;;;;;;10.73;10.23;;;;;;;;;;5414976;26;20004;-70
2024/05/05 00:43:21;;;;;;;11.02;10.52;;;;;;;;;;5405785;26;19996;-70
2024/05/05 00:45:47;;;;;;;10.98;10.48;;;;;;;;;;5388428;26;20011;-70
2024/05/05 00:48:13;;;;;;;10.43;9.93;;;;;;;;;;5375265;26;20000;-69
2024/05/05 00:50:38;;;;;;;10.90;10.40;;;;;;;;;;5426154;26;19995;-69
2024/05/05 00:53:05;;;;;;;10.52;10.02;;;;;;;;;;5414370;26;20004;-70
2024/05/05 00:55:30;;;;;;;11.00;10.50;;;;;;;;;;5382620;26;20080;-70
2024/05/05 00:57:56;;;;;;;10.90;10.40;;;;;;;;;;5420393;26;20311;-70
2024/05/05 01:00:21;;;;;;;10.63;10.13;;;;;;;;;;5382715;26;20442;-70
2024/05/05 01:02:47;;;;;;;10.63;10.13;;;;;;;;;;5414282;26;19995;-70
2024/05/05 01:05:13;;;;;;;10.70;10.20;;;;;;;;;;5413808;26;19999;-70
2024/05/05 01:07:40;;;;;;;10.45;9.95;;;;;;;;;;5387502;26;20232;-70
2024/05/05 01:10:05;;;;;;;10.25;9.82;;;;;;;;;;5395552;26;19995;-70
2024/05/05 01:12:31;;;;;;;10.75;10.25;;;;;;;;;;5423482;26;20047;-70
2024/05/05 01:14:56;;;;;;;10.80;10.30;;;;;;;;;;5401547;26;19996;-69
2024/05/05 01:17:22;;;;;;;10.70;10.20;;;;;;;;;;5382210;26;20012;-68
2024/05/05 01:19:47;;;;;;;10.75;10.25;;;;;;;;;;5413777;26;20015;-70
2024/05/05 01:22:12;;;;;;;10.80;10.30;;;;;;;;;;5379346;26;20402;-70
2024/05/05 01:24:38;;;;;;;10.60;10.10;;;;;;;;;;5408287;26;20023;-70
2024/05/05 01:27:03;;;;;;;10.88;10.38;;;;;;;;;;5406203;26;19996;-69
2024/05/05 01:29:29;;;;;;;10.93;10.43;;;;;;;;;;5412106;26;20009;-69
2024/05/05 01:31:54;;;;;;;10.98;10.48;;;;;;;;;;5413929;26;19995;-70
2024/05/05 01:34:19;;;;;;;10.75;10.25;;;;;;;;;;5406574;26;20552;-70
2024/05/05 01:36:45;;;;;;;10.52;10.02;;;;;;;;;;5415962;26;20009;-69
2024/05/05 01:39:10;;;;;;;10.57;10.07;;;;;;;;;;5413882;26;20359;-70
2024/05/05 01:41:35;;;;;;;10.38;9.88;;;;;;;;;;5388253;26;20000;-69
2024/05/05 01:44:01;;;;;;;10.40;9.90;;;;;;;;;;5412443;26;20014;-69
2024/05/05 01:46:27;;;;;;;10.90;10.40;;;;;;;;;;5391093;26;20020;-70
2024/05/05 01:48:52;;;;;;;11.07;10.57;;;;;;;;;;5415152;26;20007;-70
2024/05/05 01:51:18;;;;;;;10.82;10.32;;;;;;;;;;5413140;26;19999;-69
2024/05/05 01:53:43;;;;;;;10.70;10.20;;;;;;;;;;5411596;26;19996;-69
2024/05/05 01:56:08;;;;;;;10.85;10.35;;;;;;;;;;5388482;26;20008;-69
2024/05/05 01:58:34;;;;;;;10.45;9.95;;;;;;;;;;5412138;26;20508;-69
2024/05/05 02:01:00;;;;;;;10.68;10.18;;;;;;;;;;5413190;26;20494;-70
2024/05/05 02:03:25;;;;;;;10.57;10.07;;;;;;;;;;5413605;26;20522;-70
2024/05/05 02:05:51;;;;;;;10.40;9.90;;;;;;;;;;5413256;26;19999;-70
2024/05/05 02:08:17;;;;;;;10.35;9.85;;;;;;;;;;5413510;26;20000;-70
2024/05/05 02:10:45;;;;;;;10.20;9.73;;;;;;;;;;5387676;26;20008;-70
2024/05/05 02:13:10;;;;;;;10.32;9.82;;;;;;;;;;5416581;26;20004;-70
2024/05/05 02:15:36;;;;;;;10.63;10.13;;;;;;;;;;5413021;26;20014;-70
2024/05/05 02:18:01;;;;;;;10.73;10.23;;;;;;;;;;5390951;26;20340;-70
2024/05/05 02:20:27;;;;;;;10.60;10.10;;;;;;;;;;5412666;26;19996;-71
2024/05/05 02:22:52;;;;;;;10.77;10.27;;;;;;;;;;5412545;26;20022;-70
2024/05/05 02:25:17;;;;;;;10.50;10.00;;;;;;;;;;5410582;26;19991;-69
2024/05/05 02:27:43;;;;;;;10.45;9.95;;;;;;;;;;5412788;26;19991;-71
2024/05/05 02:30:08;;;;;;;10.43;9.93;;;;;;;;;;5413760;26;20069;-71
2024/05/05 02:32:34;;;;;;;10.63;10.13;;;;;;;;;;5411207;26;20006;-70
2024/05/05 02:34:59;;;;;;;10.50;10.00;;;;;;;;;;5413027;26;19991;-70
2024/05/05 02:37:24;;;;;;;10.60;10.10;;;;;;;;;;5412727;26;19992;-70
2024/05/05 02:39:50;;;;;;;10.50;10.00;;;;;;;;;;5405640;26;20003;-70
2024/05/05 02:42:15;;;;;;;10.40;9.90;;;;;;;;;;5416621;26;20585;-70
2024/05/05 02:44:41;;;;;;;10.50;10.00;;;;;;;;;;5407708;26;20402;-70
2024/05/05 02:47:06;;;;;;;10.30;9.80;;;;;;;;;;5384933;26;20576;-69
2024/05/05 02:49:32;;;;;;;10.50;10.00;;;;;;;;;;5419016;26;20002;-70
2024/05/05 02:51:58;;;;;;;10.88;10.38;;;;;;;;;;5413747;26;20003;-70
2024/05/05 02:54:23;;;;;;;10.90;10.40;;;;;;;;;;5366713;26;20340;-70
2024/05/05 02:56:49;;;;;;;10.23;9.77;;;;;;;;;;5406118;26;20010;-70
2024/05/05 02:59:14;;;;;;;10.35;9.85;;;;;;;;;;5416366;26;20011;-70
2024/05/05 03:01:39;;;;;;;10.23;9.73;;;;;;;;;;5396592;26;20004;-70
2024/05/05 03:04:05;;;;;;;10.30;9.80;;;;;;;;;;5393624;26;20006;-70
2024/05/05 03:06:30;;;;;;;10.40;9.90;;;;;;;;;;5421298;26;20386;-70
2024/05/05 03:08:56;;;;;;;10.40;9.90;;;;;;;;;;5415787;26;19995;-70
2024/05/05 03:11:22;;;;;;;10.80;10.30;;;;;;;;;;5383817;26;20021;-70
2024/05/05 03:13:47;;;;;;;10.88;10.38;;;;;;;;;;5414383;26;19999;-70
2024/05/05 03:16:12;;;;;;;10.57;10.07;;;;;;;;;;5394173;26;20000;-70
2024/05/05 03:18:39;;;;;;;10.20;9.77;;;;;;;;;;5415960;26;19996;-70
2024/05/05 03:21:04;;;;;;;10.80;10.30;;;;;;;;;;5415922;26;20036;-70
2024/05/05 03:23:30;;;;;;;10.70;10.20;;;;;;;;;;5424359;26;20000;-70
2024/05/05 03:25:55;;;;;;;11.05;10.55;;;;;;;;;;5387798;26;20065;-71
2024/05/05 03:28:21;;;;;;;10.85;10.35;;;;;;;;;;5418205;26;20004;-71
2024/05/05 03:30:46;;;;;;;11.10;10.60;;;;;;;;;;5415218;26;20003;-70
2024/05/05 03:33:12;;;;;;;11.38;10.88;;;;;;;;;;5416228;26;19995;-71
2024/05/05 03:35:37;;;;;;;11.00;10.50;;;;;;;;;;5416391;26;20011;-69
2024/05/05 03:38:03;;;;;;;11.60;11.10;;;;;;;;;;5396939;26;20512;-69
2024/05/05 03:40:28;;;;;;;11.68;11.18;;;;;;;;;;5416207;26;19996;-69
2024/05/05 03:42:54;;;;;;;11.45;10.95;;;;;;;;;;5415016;26;20468;-69
2024/05/05 03:45:19;;;;;;;11.70;11.20;;;;;;;;;;5415824;26;20010;-70
2024/05/05 03:47:44;;;;;;;11.85;11.35;;;;;;;;;;5415078;26;20006;-70
2024/05/05 03:50:11;;;;;;;11.85;11.35;;;;;;;;;;5415449;26;20007;-69
2024/05/05 03:52:37;;;;;;;11.90;11.40;;;;;;;;;;5409755;26;20000;-70
2024/05/05 03:55:02;;;;;;;12.07;11.57;;;;;;;;;;5415289;26;20488;-70
2024/05/05 03:57:27;;;;;;;12.02;11.52;;;;;;;;;;5393325;26;20011;-70
2024/05/05 03:59:53;;;;;;;12.05;11.55;;;;;;;;;;5415251;26;20372;-70
2024/05/05 04:02:18;;;;;;;12.32;11.82;;;;;;;;;;5383357;26;20468;-71
2024/05/05 04:04:43;;;;;;;12.07;11.57;;;;;;;;;;5383468;26;19996;-71
2024/05/05 04:07:09;;;;;;;12.05;11.55;;;;;;;;;;5405319;26;20365;-71
2024/05/05 04:09:34;;;;;;;12.38;11.88;;;;;;;;;;5382830;26;20011;-71
2024/05/05 04:12:00;;;;;;;12.30;11.80;;;;;;;;;;5414127;26;20390;-71
2024/05/05 04:14:25;;;;;;;12.40;11.85;;;;;;;;;;5421851;26;20478;-70
2024/05/05 04:16:50;;;;;;;12.07;11.57;;;;;;;;;;5415222;26;19992;-70
2024/05/05 04:19:16;;;;;;;12.40;11.90;;;;;;;;;;5415164;26;20363;-70
2024/05/05 04:21:41;;;;;;;12.25;11.75;;;;;;;;;;5383360;26;20003;-71
2024/05/05 04:24:07;;;;;;;12.73;12.13;;;;;;;;;;5428312;26;19991;-71
2024/05/05 04:26:32;;;;;;;12.48;11.90;;;;;;;;;;5423440;26;19991;-70
2024/05/05 04:28:57;;;;;;;12.70;12.10;;;;;;;;;;5414531;26;20669;-70
2024/05/05 04:31:23;;;;;;;12.85;12.25;;;;;;;;;;5415437;26;20031;-70
2024/05/05 04:33:48;;;;;;;12.85;12.25;;;;;;;;;;5386610;26;20018;-71
2024/05/05 04:36:13;;;;;;;12.80;12.20;;;;;;;;;;5383260;26;19995;-71
2024/05/05 04:38:39;;;;;;;12.98;12.38;;;;;;;;;;5412165;26;19995;-71
2024/05/05 04:41:04;;;;;;;12.88;12.27;;;;;;;;;;5401738;26;20057;-70
2024/05/05 04:43:30;;;;;;;12.65;12.05;;;;;;;;;;5414632;26;20374;-70
2024/05/05 04:45:56;;;;;;;12.68;12.07;;;;;;;;;;5405014;26;19995;-71
2024/05/05 04:48:22;;;;;;;12.75;12.15;;;;;;;;;;5416059;26;19999;-71
2024/05/05 04:50:47;;;;;;;12.73;12.13;;;;;;;;;;5414350;26;20003;-72
2024/05/05 04:53:13;;;;;;;12.77;12.18;;;;;;;;;;5413793;26;20027;-71
2024/05/05 04:55:39;;;;;;;13.10;12.50;;;;;;;;;;5403594;26;19999;-72
2024/05/05 04:58:04;;;;;;;12.80;12.20;;;;;;;;;;5414411;26;20472;-71
2024/05/05 05:00:30;;;;;;;12.80;12.20;;;;;;;;;;5414164;26;20026;-71
2024/05/05 05:02:55;;;;;;;12.98;12.38;;;;;;;;;;5413656;26;20528;-71
2024/05/05 05:05:21;;;;;;;13.02;12.43;;;;;;;;;;5424658;26;19991;-71
2024/05/05 05:07:46;;;;;;;12.90;12.30;;;;;;;;;;5414291;26;20018;-71
2024/05/05 05:10:11;;;;;;;13.10;12.50;;;;;;;;;;5413030;26;20479;-70
2024/05/05 05:12:37;;;;;;;12.95;12.35;;;;;;;;;;5414276;26;19995;-70
2024/05/05 05:15:02;;;;;;;13.25;12.65;;;;;;;;;;5413281;26;20010;-70
2024/05/05 05:17:28;;;;;;;13.07;12.48;;;;;;;;;;5414417;26;20075;-71
2024/05/05 05:19:54;;;;;;;13.10;12.50;;;;;;;;;;5414061;26;20007;-71
2024/05/05 05:22:19;;;;;;;12.98;12.38;;;;;;;;;;5430692;26;20007;-69
2024/05/05 05:24:44;;;;;;;13.30;12.70;;;;;;;;;;5388759;26;20003;-70
2024/05/05 05:27:10;;;;;;;13.00;12.40;;;;;;;;;;5413717;26;19991;-70
2024/05/05 05:29:35;;;;;;;13.10;12.50;;;;;;;;;;5407319;26;20348;-70
2024/05/05 05:32:01;;;;;;;13.20;12.60;;;;;;;;;;5413404;26;19988;-70
2024/05/05 05:34:26;;;;;;;13.20;12.60;;;;;;;;;;5416032;26;20449;-70
2024/05/05 05:36:51;;;;;;;12.88;12.27;;;;;;;;;;5409217;26;20019;-71
2024/05/05 05:39:17;;;;;;;12.98;12.38;;;;;;;;;;5414717;26;20647;-69
2024/05/05 05:41:42;;;;;;;13.13;12.52;;;;;;;;;;5385811;26;19996;-71
2024/05/05 05:44:08;;;;;;;12.75;12.15;;;;;;;;;;5382292;26;20007;-72
2024/05/05 05:46:33;;;;;;;13.07;12.48;;;;;;;;;;5413280;26;20007;-72
2024/05/05 05:48:59;;;;;;;12.80;12.20;;;;;;;;;;5382320;26;20480;-72
2024/05/05 05:51:24;;;;;;;12.93;12.32;;;;;;;;;;5412059;26;19995;-72
2024/05/05 05:53:50;;;;;;;13.00;12.40;;;;;;;;;;5413156;26;20011;-72
2024/05/05 05:56:15;;;;;;;12.80;12.20;;;;;;;;;;5414124;26;20664;-70
2024/05/05 05:58:41;;;;;;;13.07;12.48;;;;;;;;;;5413560;26;19995;-71
2024/05/05 06:01:08;;;;;;;13.05;12.45;;;;;;;;;;5415878;26;19999;-71
2024/05/05 06:03:33;;;;;;;13.10;12.50;;;;;;;;;;5413490;26;20007;-71
2024/05/05 06:05:59;;;;;;;12.98;12.38;;;;;;;;;;5394725;26;19992;-72
2024/05/05 06:08:24;;;;;;;12.98;12.38;;;;;;;;;;5382003;26;20006;-72
2024/05/05 06:10:50;;;;;;;12.80;12.20;;;;;;;;;;5412287;26;20452;-71
2024/05/05 06:13:16;;;;;;;12.85;12.25;;;;;;;;;;5413921;26;19999;-70
2024/05/05 06:15:42;;;;;;;12.75;12.15;;;;;;;;;;5415095;26;20007;-71
2024/05/05 06:18:07;;;;;;;12.98;12.38;;;;;;;;;;5416595;26;20011;-71
2024/05/05 06:20:32;;;;;;;12.80;12.20;;;;;;;;;;5416271;26;20034;-71
2024/05/05 06:22:58;;;;;;;12.95;12.35;;;;;;;;;;5416626;26;20460;-73
2024/05/05 06:25:24;;;;;;;12.73;12.13;;;;;;;;;;5416522;26;19999;-72
2024/05/05 06:27:49;;;;;;;12.75;12.15;;;;;;;;;;5416159;26;19999;-72
2024/05/05 06:30:15;;;;;;;13.05;12.45;;;;;;;;;;5396945;26;20077;-70
2024/05/05 06:32:40;;;;;;;13.00;12.40;;;;;;;;;;5416800;26;19999;-72
2024/05/05 06:35:06;;;;;;;12.68;12.07;;;;;;;;;;5384710;26;20064;-71
2024/05/05 06:37:31;;;;;;;12.65;12.05;;;;;;;;;;5416346;26;20021;-71
2024/05/05 06:39:57;;;;;;;12.68;12.07;;;;;;;;;;5416303;26;20053;-70
2024/05/05 06:42:22;;;;;;;12.82;12.23;;;;;;;;;;5415895;26;20031;-71
2024/05/05 06:44:47;;;;;;;12.90;12.30;;;;;;;;;;5415875;26;20525;-71
2024/05/05 06:47:13;;;;;;;12.50;11.95;;;;;;;;;;5414320;26;20484;-72
2024/05/05 06:49:38;;;;;;;12.90;12.30;;;;;;;;;;5378802;26;20011;-72
2024/05/05 06:52:04;;;;;;;12.77;12.18;;;;;;;;;;5419917;26;19991;-70
2024/05/05 06:54:29;;;;;;;12.90;12.30;;;;;;;;;;5415822;26;20498;-71
2024/05/05 06:56:55;;;;;;;12.85;12.25;;;;;;;;;;5416027;26;19992;-71
2024/05/05 06:59:20;;;;;;;13.00;12.40;;;;;;;;;;5428165;26;20002;-71
2024/05/05 07:01:46;;;;;;;12.63;12.02;;;;;;;;;;5415958;26;20068;-72
2024/05/05 07:04:11;;;;;;;12.43;11.90;;;;;;;;;;5434745;26;20007;-71
2024/05/05 07:06:36;;;;;;;12.40;11.88;;;;;;;;;;5393966;26;20011;-72
2024/05/05 07:09:02;;;;;;;12.43;11.90;;;;;;;;;;5415921;26;20018;-71
2024/05/05 07:11:27;;;;;;;12.68;12.07;;;;;;;;;;5439582;26;20003;-71
2024/05/05 07:13:53;;;;;;;12.63;12.02;;;;;;;;;;5415693;26;20010;-71
2024/05/05 07:16:18;;;;;;;12.68;12.07;;;;;;;;;;5377357;26;20072;-70
2024/05/05 07:18:43;;;;;;;12.70;12.10;;;;;;;;;;5415906;26;20472;-71
2024/05/05 07:21:09;;;;;;;12.68;12.07;;;;;;;;;;5416156;26;20451;-71
2024/05/05 07:23:34;;;;;;;12.45;11.90;;;;;;;;;;5415359;26;20026;-71
2024/05/05 07:26:01;;;;;;;12.73;12.13;;;;;;;;;;5439252;26;20403;-70
2024/05/05 07:28:26;;;;;;;12.52;11.95;;;;;;;;;;5396301;26;20015;-70
2024/05/05 07:30:52;;;;;;;12.63;12.02;;;;;;;;;;5383989;26;19999;-72
2024/05/05 07:33:17;;;;;;;12.73;12.13;;;;;;;;;;5415409;26;20445;-70
2024/05/05 07:35:42;;;;;;;12.75;12.15;;;;;;;;;;5415228;26;19995;-71
2024/05/05 07:38:08;;;;;;;12.85;12.25;;;;;;;;;;5415532;26;19992;-70
2024/05/05 07:40:33;;;;;;;13.05;12.45;;;;;;;;;;5415336;26;20336;-71
2024/05/05 07:42:59;;;;;;;12.75;12.15;;;;;;;;;;5433373;26;20448;-71
2024/05/05 07:45:24;;;;;;;12.63;12.02;;;;;;;;;;5415119;26;20475;-70
2024/05/05 07:47:50;;;;;;;12.32;11.82;;;;;;;;;;5415397;26;20460;-70
2024/05/05 07:50:16;;;;;;;12.82;12.23;;;;;;;;;;5415499;26;20010;-70
2024/05/05 07:52:42;;;;;;;12.70;12.10;;;;;;;;;;5414919;26;20308;-69
2024/05/05 07:55:08;;;;;;;12.60;12.00;;;;;;;;;;5426602;26;20480;-69
2024/05/05 07:57:35;;;;;;;12.70;12.10;;;;;;;;;;5412936;26;20006;-72
2024/05/05 08:00:01;;;;;;;12.88;12.27;;;;;;;;;;5380036;26;20024;-69
2024/05/05 08:02:26;;;;;;;12.30;11.80;;;;;;;;;;5410192;26;20332;-70
2024/05/05 08:04:51;;;;;;;12.48;11.90;;;;;;;;;;5414740;26;20003;-70
2024/05/05 08:07:17;;;;;;;12.10;11.60;;;;;;;;;;5432003;26;19987;-69
2024/05/05 08:09:42;;;;;;;12.23;11.73;;;;;;;;;;5408324;26;19992;-70
2024/05/05 08:12:08;;;;;;;12.25;11.75;;;;;;;;;;5381625;26;20007;-70
2024/05/05 08:14:33;;;;;;;12.02;11.52;;;;;;;;;;5414748;26;20042;-70
2024/05/05 08:16:59;;;;;;;12.43;11.88;;;;;;;;;;5414702;26;20452;-69
2024/05/05 08:19:24;;;;;;;12.52;11.93;;;;;;;;;;5386400;26;20348;-70
2024/05/05 08:21:49;;;;;;;12.25;11.75;;;;;;;;;;5413834;26;20000;-70
2024/05/05 08:24:15;;;;;;;12.10;11.60;;;;;;;;;;5413528;26;20072;-70
2024/05/05 08:26:40;;;;;;;12.32;11.82;;;;;;;;;;5396674;26;20083;-69
2024/05/05 08:29:06;;;;;;;11.98;11.48;;;;;;;;;;5417926;26;19996;-69
2024/05/05 08:31:31;;;;;;;11.90;11.40;;;;;;;;;;5415018;26;20007;-70
2024/05/05 08:33:57;;;;;;;11.88;11.38;;;;;;;;;;5414711;26;19995;-70
2024/05/05 08:36:22;;;;;;;12.02;11.52;;;;;;;;;;5412829;26;20467;-70
2024/05/05 08:38:48;;;;;;;12.00;11.50;;;;;;;;;;5382558;26;20003;-70
2024/05/05 08:41:15;;;;;;;12.27;11.77;;;;;;;;;;5412568;26;19991;-70
2024/05/05 08:43:43;;;;;;;12.15;11.65;;;;;;;;;;5391584;26;20003;-70
2024/05/05 08:46:08;;;;;;;12.73;12.13;;;;;;;;;;5414815;26;20014;-70
2024/05/05 08:48:35;;;;;;;12.32;11.82;;;;;;;;;;5414242;26;20003;-71
2024/05/05 08:51:01;;;;;;;12.18;11.68;;;;;;;;;;5419002;26;19999;-71
2024/05/05 08:53:27;;;;;;;12.07;11.57;;;;;;;;;;5382804;26;20007;-71
2024/05/05 08:55:52;;;;;;;12.45;11.88;;;;;;;;;;5398931;26;19989;-71
2024/05/05 08:58:19;;;;;;;12.25;11.75;;;;;;;;;;5382466;26;20093;-70
2024/05/05 09:00:45;;;;;;;12.23;11.73;;;;;;;;;;5413769;26;20060;-70
2024/05/05 09:03:13;;;;;;;12.30;11.80;;;;;;;;;;5415272;26;19999;-70
2024/05/05 09:05:40;;;;;;;12.18;11.68;;;;;;;;;;5434755;26;20007;-70
2024/05/05 09:08:06;;;;;;;12.10;11.60;;;;;;;;;;5426546;26;20015;-71
2024/05/05 09:10:35;;;;;;;12.10;11.60;;;;;;;;;;5413548;26;19999;-70
2024/05/05 09:13:01;;;;;;;12.30;11.80;;;;;;;;;;5413347;26;20007;-70
2024/05/05 09:15:27;;;;;;;12.15;11.65;;;;;;;;;;5414034;26;20004;-70
2024/05/05 09:17:53;;;;;;;12.20;11.70;;;;;;;;;;5413669;26;20401;-70
2024/05/05 09:20:19;;;;;;;12.05;11.55;;;;;;;;;;5421567;26;19999;-70
2024/05/05 09:22:44;;;;;;;12.02;11.52;;;;;;;;;;5413793;26;20019;-69
2024/05/05 09:25:10;;;;;;;12.15;11.65;;;;;;;;;;5414142;26;20461;-70
2024/05/05 09:27:36;;;;;;;12.02;11.52;;;;;;;;;;5387947;26;19999;-69
2024/05/05 09:30:02;;;;;;;12.23;11.73;;;;;;;;;;5382287;26;20094;-70
2024/05/05 09:32:28;;;;;;;12.02;11.52;;;;;;;;;;5413181;26;20421;-71
2024/05/05 09:35:01;;;;;;;12.20;11.70;;;;;;;;;;5413765;26;20010;-70
2024/05/05 09:37:30;;;;;;;12.07;11.57;;;;;;;;;;5421353;26;20000;-71
2024/05/05 09:39:55;;;;;;;12.13;11.63;;;;;;;;;;5413688;26;20006;-70
2024/05/05 09:42:21;;;;;;;12.30;11.80;;;;;;;;;;5388703;26;20011;-70
2024/05/05 09:44:46;;;;;;;12.23;11.73;;;;;;;;;;5382371;26;20431;-70
2024/05/05 09:47:14;;;;;;;12.23;11.73;;;;;;;;;;5384358;26;20011;-71
2024/05/05 09:49:40;;;;;;;11.88;11.38;;;;;;;;;;5437793;26;20558;-70
2024/05/05 09:52:13;;;;;;;12.02;11.52;;;;;;;;;;5408531;26;20000;-70
2024/05/05 09:55:02;;;;;;;12.23;11.73;;;;;;;;;;5444209;26;20015;-71
2024/05/05 09:57:30;;;;;;;12.30;11.80;;;;;;;;;;5379715;26;20001;-71
2024/05/05 09:59:56;;;;;;;12.30;11.80;;;;;;;;;;5421623;26;20006;-71
2024/05/05 10:02:23;;;;;;;12.20;11.70;;;;;;;;;;5441681;26;20000;-71
2024/05/05 10:04:48;;;;;;;12.27;11.77;;;;;;;;;;5422637;26;20004;-70
2024/05/05 10:07:22;;;;;;;12.00;11.50;;;;;;;;;;5395043;26;20000;-71
2024/05/05 10:09:47;;;;;;;12.03;11.53;;;;;;;;;;5420779;26;20004;-71
2024/05/05 10:12:13;;;;;;;12.07;11.57;;;;;;;;;;5420795;26;20007;-71
2024/05/05 10:14:39;;;;;;;11.88;11.38;;;;;;;;;;5422989;26;20083;-71
2024/05/05 10:17:05;;;;;;;12.05;11.55;;;;;;;;;;5367739;26;20353;-70
2024/05/05 10:19:32;;;;;;;11.95;11.45;;;;;;;;;;5408399;26;20000;-70
2024/05/05 10:22:04;;;;;;;11.95;11.45;;;;;;;;;;5421415;26;19999;-71
2024/05/05 10:24:30;;;;;;;12.00;11.50;;;;;;;;;;5419515;26;20014;-70
2024/05/05 10:26:55;;;;;;;11.95;11.45;;;;;;;;;;5391756;26;19999;-70
2024/05/05 10:29:21;;;;;;;11.95;11.45;;;;;;;;;;5415571;26;20467;-70
2024/05/05 10:31:47;;;;;;;12.02;11.52;;;;;;;;;;5420275;26;20022;-70
2024/05/05 10:34:13;;;;;;;11.88;11.38;;;;;;;;;;5405416;26;20054;-70
2024/05/05 10:36:38;;;;;;;12.05;11.55;;;;;;;;;;5389653;26;20012;-71
2024/05/05 10:39:03;;;;;;;12.25;11.75;;;;;;;;;;5392381;26;20003;-69
2024/05/05 10:41:29;;;;;;;11.98;11.48;;;;;;;;;;5416912;26;19999;-69
2024/05/05 10:43:55;;;;;;;12.20;11.70;;;;;;;;;;5441036;26;20006;-70
2024/05/05 10:46:20;;;;;;;12.02;11.52;;;;;;;;;;5418571;26;20352;-71
2024/05/05 10:48:46;;;;;;;12.00;11.50;;;;;;;;;;5401126;26;20515;-70
2024/05/05 10:51:13;;;;;;;12.00;11.50;;;;;;;;;;5419379;26;20003;-69
2024/05/05 10:53:38;;;;;;;11.80;11.30;;;;;;;;;;5420043;26;20023;-70
2024/05/05 10:56:04;;;;;;;11.68;11.18;;;;;;;;;;5419743;26;20004;-70
2024/05/05 10:58:31;;;;;;;11.95;11.45;;;;;;;;;;5400697;26;20000;-70
2024/05/05 11:00:56;;;;;;;11.75;11.25;;;;;;;;;;5418885;26;20010;-71
2024/05/05 11:03:22;;;;;;;11.95;11.45;;;;;;;;;;5416261;26;19996;-70
2024/05/05 11:05:48;;;;;;;11.95;11.45;;;;;;;;;;5407720;26;20130;-70
2024/05/05 11:08:13;;;;;;;11.88;11.38;;;;;;;;;;5395729;26;20003;-71
2024/05/05 11:10:39;;;;;;;11.77;11.27;;;;;;;;;;5414948;26;19998;-70
2024/05/05 11:13:04;;;;;;;11.88;11.38;;;;;;;;;;5415453;26;20027;-71
2024/05/05 11:15:30;;;;;;;12.00;11.50;;;;;;;;;;5398999;26;20358;-70
2024/05/05 11:18:03;;;;;;;11.77;11.27;;;;;;;;;;5447616;26;20003;-71
2024/05/05 11:20:28;;;;;;;11.68;11.18;;;;;;;;;;5420035;26;20172;-70
2024/05/05 11:22:54;;;;;;;12.00;11.50;;;;;;;;;;5415894;26;20007;-71
2024/05/05 11:25:19;;;;;;;11.85;11.35;;;;;;;;;;5415564;26;20574;-71
2024/05/05 11:27:44;;;;;;;11.75;11.25;;;;;;;;;;5415623;26;20003;-71
2024/05/05 11:30:10;;;;;;;11.68;11.18;;;;;;;;;;5383252;26;20522;-70
2024/05/05 11:32:35;;;;;;;11.40;10.90;;;;;;;;;;5385071;26;20045;-70
2024/05/05 11:35:01;;;;;;;11.73;11.23;;;;;;;;;;5416056;26;20018;-71
2024/05/05 11:37:27;;;;;;;11.70;11.20;;;;;;;;;;5393443;26;20015;-70
2024/05/05 11:39:52;;;;;;;11.82;11.32;;;;;;;;;;5418268;26;20577;-70
2024/05/05 11:42:17;;;;;;;11.80;11.30;;;;;;;;;;5415116;26;20003;-70
2024/05/05 11:44:43;;;;;;;11.77;11.27;;;;;;;;;;5410617;26;20061;-71
2024/05/05 11:47:17;;;;;;;11.60;11.10;;;;;;;;;;5387321;26;20007;-71
2024/05/05 11:50:02;;;;;;;11.88;11.38;;;;;;;;;;5408750;26;19999;-71
2024/05/05 11:52:39;;;;;;;11.82;11.32;;;;;;;;;;5417063;26;20306;-71
2024/05/05 11:55:06;;;;;;;11.55;11.05;;;;;;;;;;5393791;26;20072;-71
2024/05/05 11:57:33;;;;;;;12.00;11.50;;;;;;;;;;5405727;26;20016;-71
2024/05/05 11:59:58;;;;;;;11.60;11.10;;;;;;;;;;5415341;26;20000;-71
2024/05/05 12:02:28;;;;;;;11.90;11.40;;;;;;;;;;5414691;26;20072;-70
2024/05/05 12:04:53;;;;;;;11.60;11.10;;;;;;;;;;5411345;26;20050;-70
2024/05/05 12:07:19;;;;;;;11.75;11.25;;;;;;;;;;5414996;26;20000;-70
2024/05/05 12:10:03;;;;;;;11.80;11.30;;;;;;;;;;5415879;26;20000;-71
2024/05/05 12:12:29;;;;;;;11.27;10.77;;;;;;;;;;5413818;26;20468;-71
2024/05/05 12:14:54;;;;;;;11.90;11.40;;;;;;;;;;5414544;26;20073;-70
2024/05/05 12:17:38;;;;;;;11.93;11.43;;;;;;;;;;5414946;26;20011;-70
2024/05/05 12:20:22;;;;;;;11.68;11.18;;;;;;;;;;5415195;26;20073;-71
2024/05/05 12:22:47;;;;;;;11.95;11.45;;;;;;;;;;5417086;26;20452;-71
2024/05/05 12:25:17;;;;;;;11.90;11.40;;;;;;;;;;5390641;26;19999;-70
2024/05/05 12:27:43;;;;;;;11.95;11.45;;;;;;;;;;5434305;26;19999;-69
2024/05/05 12:30:08;;;;;;;11.75;11.25;;;;;;;;;;5414832;26;20003;-70
2024/05/05 12:32:33;;;;;;;11.82;11.32;;;;;;;;;;5414346;26;20464;-71
2024/05/05 12:34:59;;;;;;;11.77;11.27;;;;;;;;;;5382702;26;20449;-70
2024/05/05 12:37:24;;;;;;;11.52;11.02;;;;;;;;;;5414685;26;20019;-70
2024/05/05 12:39:50;;;;;;;11.75;11.25;;;;;;;;;;5405080;26;20456;-70
2024/05/05 12:42:18;;;;;;;11.93;11.43;;;;;;;;;;5366438;26;20000;-70
2024/05/05 12:44:43;;;;;;;11.98;11.48;;;;;;;;;;5415336;26;20473;-71
2024/05/05 12:47:16;;;;;;;12.05;11.55;;;;;;;;;;5383209;26;20003;-70
2024/05/05 12:49:41;;;;;;;11.80;11.30;;;;;;;;;;5415178;26;20011;-70
2024/05/05 12:52:07;;;;;;;11.88;11.38;;;;;;;;;;5382766;26;20003;-70
2024/05/05 12:54:33;;;;;;;11.82;11.32;;;;;;;;;;5388105;26;20004;-70
2024/05/05 12:56:58;;;;;;;11.85;11.35;;;;;;;;;;5411793;26;20000;-70
2024/05/05 12:59:23;;;;;;;11.90;11.40;;;;;;;;;;5387518;26;19999;-68
2024/05/05 13:01:49;;;;;;;11.88;11.38;;;;;;;;;;5425140;26;20007;-70
2024/05/05 13:04:14;;;;;;;12.10;11.60;;;;;;;;;;5417130;26;20027;-70
2024/05/05 13:06:40;;;;;;;11.77;11.27;;;;;;;;;;5413593;26;19996;-71
2024/05/05 13:09:05;;;;;;;11.90;11.40;;;;;;;;;;5381317;26;20004;-71
2024/05/05 13:11:31;;;;;;;11.82;11.32;;;;;;;;;;5437195;26;20015;-70
2024/05/05 13:13:56;;;;;;;12.00;11.50;;;;;;;;;;5383066;26;20439;-70
2024/05/05 13:16:22;;;;;;;11.90;11.40;;;;;;;;;;5413964;26;20791;-70
2024/05/05 13:18:47;;;;;;;11.82;11.32;;;;;;;;;;5417296;26;19996;-70
2024/05/05 13:21:13;;;;;;;11.98;11.48;;;;;;;;;;5409287;26;20472;-70
2024/05/05 13:23:38;;;;;;;11.60;11.10;;;;;;;;;;5400736;26;20003;-71
2024/05/05 13:26:04;;;;;;;11.63;11.13;;;;;;;;;;5389051;26;20015;-70
2024/05/05 13:28:29;;;;;;;11.88;11.38;;;;;;;;;;5396276;26;20069;-69
2024/05/05 13:30:55;;;;;;;11.70;11.20;;;;;;;;;;5414426;26;20011;-70
2024/05/05 13:33:20;;;;;;;11.57;11.07;;;;;;;;;;5430559;26;20002;-69
2024/05/05 13:35:46;;;;;;;11.50;11.00;;;;;;;;;;5411550;26;19995;-71
2024/05/05 13:38:11;;;;;;;11.82;11.32;;;;;;;;;;5413565;26;20014;-70
2024/05/05 13:40:37;;;;;;;11.75;11.25;;;;;;;;;;5413721;26;20455;-70
2024/05/05 13:43:02;;;;;;;11.90;11.40;;;;;;;;;;5413664;26;20043;-70
2024/05/05 13:45:28;;;;;;;11.63;11.13;;;;;;;;;;5418286;26;20077;-71
2024/05/05 13:47:53;;;;;;;11.77;11.27;;;;;;;;;;5421707;26;20345;-70
2024/05/05 13:50:18;;;;;;;11.75;11.25;;;;;;;;;;5412913;26;20444;-73
2024/05/05 13:52:44;;;;;;;12.00;11.50;;;;;;;;;;5414675;26;20022;-70
2024/05/05 13:55:09;;;;;;;11.70;11.20;;;;;;;;;;5381313;26;20459;-72
2024/05/05 13:57:35;;;;;;;11.63;11.13;;;;;;;;;;5413984;26;19987;-70
2024/05/05 14:00:00;;;;;;;11.90;11.40;;;;;;;;;;5413515;26;19991;-70
2024/05/05 14:02:25;;;;;;;11.45;10.95;;;;;;;;;;5413449;26;20468;-70
2024/05/05 14:04:51;;;;;;;12.00;11.50;;;;;;;;;;5397056;26;19999;-71
2024/05/05 14:07:16;;;;;;;11.90;11.40;;;;;;;;;;5424672;26;20000;-71
2024/05/05 14:09:42;;;;;;;11.98;11.48;;;;;;;;;;5408494;26;20038;-70
2024/05/05 14:12:07;;;;;;;11.65;11.15;;;;;;;;;;5397303;26;20000;-71